Time;durP1;ratioP1;P1;durP2;ratioP2;P2;SDS_P1;SDS_P2;PMS_P1;PMS_P2;Temp;Humidity;BMP_temperature;BMP_pressure;BME280_temperature;BME280_humidity;BME280_pressure;Samples;Min_cycle;Max_cycle;Signal;HPM_P1;HPM_P2
2022/05/29 00:00:15;;;;;;;5.65;2.28;;;;;;;15.04;56.04;101184.06;5068002;28;20483;-82
2022/05/29 00:02:41;;;;;;;2.65;1.55;;;;;;;14.90;56.86;101186.91;5070090;28;20074;-82
2022/05/29 00:05:07;;;;;;;6.32;1.50;;;;;;;14.90;57.07;101197.47;5067348;28;20577;-81
2022/05/29 00:07:33;;;;;;;4.15;1.48;;;;;;;15.04;56.27;101183.22;5069962;28;20056;-82
2022/05/29 00:10:03;;;;;;;3.45;2.05;;;;;;;15.11;56.47;101179.19;5075264;28;20214;-81
2022/05/29 00:12:28;;;;;;;2.42;1.80;;;;;;;14.98;56.35;101181.88;5073349;28;20032;-81
2022/05/29 00:14:54;;;;;;;5.13;1.67;;;;;;;14.73;57.11;101189.94;5075564;28;20531;-81
2022/05/29 00:17:19;;;;;;;4.82;1.80;;;;;;;14.79;57.07;101187.72;5072705;28;20024;-81
2022/05/29 00:19:45;;;;;;;3.22;1.67;;;;;;;14.99;56.84;101183.59;5075205;28;20020;-82
2022/05/29 00:22:16;;;;;;;10.13;2.45;;;;;;;15.03;56.23;101187.69;5071694;28;20021;-84
2022/05/29 00:24:42;;;;;;;5.03;1.65;;;;;;;15.07;56.31;101173.28;5073140;28;20025;-84
2022/05/29 00:27:09;;;;;;;5.82;1.80;;;;;;;15.01;56.96;101189.59;5074987;28;20111;-82
2022/05/29 00:29:35;;;;;;;7.25;1.70;;;;;;;15.22;56.30;101181.84;5072432;28;20067;-81
2022/05/29 00:32:02;;;;;;;3.55;1.67;;;;;;;15.23;55.84;101177.41;5072491;28;20060;-84
2022/05/29 00:34:27;;;;;;;3.70;1.30;;;;;;;15.30;55.36;101181.28;5071159;28;20027;-82
2022/05/29 00:36:52;;;;;;;3.70;1.75;;;;;;;15.10;56.07;101181.94;5073951;28;20115;-82
2022/05/29 00:39:18;;;;;;;7.95;2.05;;;;;;;14.82;56.38;101181.34;5070598;28;20115;-81
2022/05/29 00:41:44;;;;;;;4.68;1.60;;;;;;;14.93;56.35;101181.41;5074731;28;20039;-81
2022/05/29 00:44:14;;;;;;;4.00;1.35;;;;;;;14.83;56.55;101186.53;5072370;28;20032;-81
2022/05/29 00:47:12;;;;;;;2.85;1.40;;;;;;;14.49;57.50;101185.44;5072993;28;20035;-82
2022/05/29 00:49:39;;;;;;;3.47;1.50;;;;;;;14.26;57.93;101185.28;5069552;28;20038;-81
2022/05/29 00:52:06;;;;;;;5.38;1.80;;;;;;;14.25;57.67;101191.53;5074328;28;20053;-81
2022/05/29 00:54:42;;;;;;;1.88;1.23;;;;;;;14.25;57.73;101195.97;5072762;28;20025;-81
2022/05/29 00:57:10;;;;;;;3.17;1.63;;;;;;;14.20;57.60;101183.09;5074531;28;20071;-81
2022/05/29 00:59:36;;;;;;;4.68;1.60;;;;;;;13.89;58.41;101187.03;5072281;28;20025;-81
2022/05/29 01:02:03;;;;;;;5.60;1.95;;;;;;;13.88;58.12;101183.56;5072616;28;20032;-84
2022/05/29 01:04:32;;;;;;;11.50;1.75;;;;;;;13.87;58.09;101176.56;5070906;28;20036;-84
2022/05/29 01:07:00;;;;;;;3.72;1.20;;;;;;;14.09;57.20;101180.34;5073263;28;20020;-81
2022/05/29 01:09:26;;;;;;;3.05;1.30;;;;;;;13.83;57.79;101175.09;5071963;28;20074;-82
2022/05/29 01:12:20;;;;;;;7.40;1.58;;;;;;;13.78;58.17;101179.84;5071764;28;20028;-81
2022/05/29 01:15:22;;;;;;;7.78;2.03;;;;;;;13.88;58.05;101172.13;5062551;28;20068;-81
2022/05/29 01:18:20;;;;;;;3.25;1.38;;;;;;;13.84;57.68;101179.44;5071090;28;20028;-81
2022/05/29 01:21:04;;;;;;;4.18;2.35;;;;;;;13.96;57.61;101179.53;5074157;28;20363;-81
2022/05/29 01:24:00;;;;;;;4.28;1.33;;;;;;;13.97;57.52;101178.59;5071940;28;20044;-82
2022/05/29 01:26:44;;;;;;;4.45;1.40;;;;;;;13.84;57.92;101182.09;5072961;28;20529;-81
2022/05/29 01:29:18;;;;;;;4.68;1.45;;;;;;;13.82;58.28;101184.00;5074124;28;20064;-81
2022/05/29 01:32:02;;;;;;;6.65;1.88;;;;;;;14.01;57.26;101178.25;5071726;28;20028;-81
2022/05/29 01:34:33;;;;;;;6.50;1.33;;;;;;;13.74;57.88;101175.72;5069437;28;20059;-81
2022/05/29 01:37:14;;;;;;;3.77;1.40;;;;;;;13.88;57.31;101166.84;5073730;28;20098;-81
2022/05/29 01:39:51;;;;;;;4.83;1.50;;;;;;;13.80;57.18;101170.06;5071342;28;20281;-81
2022/05/29 01:42:41;;;;;;;4.47;1.50;;;;;;;13.92;57.08;101171.00;5072790;28;20054;-81
2022/05/29 01:45:16;;;;;;;4.00;1.15;;;;;;;14.05;56.65;101166.53;5073888;28;20390;-81
2022/05/29 01:47:47;;;;;;;4.68;1.52;;;;;;;14.35;55.44;101170.56;5071314;28;20024;-81
2022/05/29 01:50:23;;;;;;;6.40;1.20;;;;;;;14.27;55.81;101170.28;5070941;28;20071;-81
2022/05/29 01:53:05;;;;;;;6.05;1.27;;;;;;;14.14;55.75;101172.09;5072405;28;20078;-81
2022/05/29 01:55:36;;;;;;;4.90;1.10;;;;;;;14.00;56.30;101170.44;5071462;28;20478;-81
2022/05/29 01:58:08;;;;;;;3.90;1.10;;;;;;;14.01;55.72;101172.97;5072130;28;20065;-81
2022/05/29 02:00:34;;;;;;;3.80;1.10;;;;;;;14.11;55.82;101175.81;5068955;28;20025;-81
2022/05/29 02:03:08;;;;;;;3.88;1.92;;;;;;;13.91;55.66;101161.38;5071858;28;20047;-82
2022/05/29 02:05:41;;;;;;;6.10;1.38;;;;;;;13.89;56.15;101169.41;5068192;28;20418;-81
2022/05/29 02:08:21;;;;;;;5.07;1.02;;;;;;;13.88;55.93;101164.22;5073136;28;20055;-81
2022/05/29 02:10:49;;;;;;;6.07;0.98;;;;;;;13.77;56.41;101164.13;5067755;28;20039;-81
2022/05/29 02:13:33;;;;;;;2.40;0.80;;;;;;;13.66;56.39;101162.22;5072731;28;20487;-81
2022/05/29 02:16:09;;;;;;;3.40;1.20;;;;;;;13.73;55.70;101162.66;5071168;28;20044;-81
2022/05/29 02:18:45;;;;;;;4.28;0.95;;;;;;;13.59;55.84;101158.34;5062325;28;20099;-81
2022/05/29 02:21:17;;;;;;;4.30;0.73;;;;;;;13.70;56.00;101161.06;5070428;28;20033;-81
2022/05/29 02:23:48;;;;;;;2.50;1.05;;;;;;;13.82;54.79;101157.59;5070794;28;20013;-81
2022/05/29 02:26:20;;;;;;;2.67;0.90;;;;;;;13.69;55.03;101151.47;5071720;28;20093;-81
2022/05/29 02:28:49;;;;;;;;;;;;;;;13.88;54.22;101151.00;5070576;28;20103;-81
2022/05/29 02:31:34;;;;;;;1.23;1.10;;;;;;;13.75;54.42;101155.47;5072699;28;19966;-81
2022/05/29 02:34:09;;;;;;;2.10;0.88;;;;;;;13.73;54.55;101157.38;5065864;28;20093;-81
2022/05/29 02:36:46;;;;;;;1.92;0.80;;;;;;;13.72;54.89;101156.53;5072422;28;20034;-81
2022/05/29 02:39:22;;;;;;;3.22;0.70;;;;;;;13.83;54.64;101148.72;5070731;28;20037;-81
2022/05/29 02:41:47;;;;;;;4.43;1.10;;;;;;;13.93;53.91;101151.56;5067087;28;20479;-82
2022/05/29 02:44:21;;;;;;;3.72;0.85;;;;;;;13.95;53.37;101154.09;5072342;28;20039;-81
2022/05/29 02:47:30;;;;;;;2.08;0.98;;;;;;;13.95;53.22;101156.72;5070173;28;20036;-81
2022/05/29 02:50:23;;;;;;;7.70;1.25;;;;;;;13.92;53.42;101157.81;5049685;28;20466;-81
2022/05/29 02:52:51;;;;;;;2.03;0.57;;;;;;;14.05;52.59;101152.47;5072109;28;20029;-81
2022/05/29 02:55:17;;;;;;;3.83;0.80;;;;;;;14.09;52.07;101154.78;5071221;28;20114;-81
2022/05/29 02:57:43;;;;;;;1.38;0.50;;;;;;;13.89;52.01;101153.56;5070812;28;20532;-81
2022/05/29 03:00:13;;;;;;;2.05;1.10;;;;;;;13.91;51.42;101157.91;5069868;28;20395;-82
2022/05/29 03:02:50;;;;;;;3.53;0.65;;;;;;;13.85;51.36;101154.72;5070950;28;20037;-81
2022/05/29 03:05:29;;;;;;;5.35;0.85;;;;;;;14.07;50.66;101146.13;5066074;28;20491;-81
2022/05/29 03:08:17;;;;;;;2.22;0.77;;;;;;;14.11;51.17;101141.47;5052111;28;20498;-81
2022/05/29 03:10:50;;;;;;;4.30;0.90;;;;;;;14.04;50.87;101141.09;5062772;28;20067;-81
2022/05/29 03:13:38;;;;;;;0.98;0.40;;;;;;;13.98;50.80;101140.66;5070357;28;20032;-81
2022/05/29 03:16:23;;;;;;;4.43;0.70;;;;;;;13.83;51.27;101130.22;5068322;28;20474;-81
2022/05/29 03:19:25;;;;;;;2.88;0.65;;;;;;;14.02;50.88;101121.00;5071641;28;20048;-81
2022/05/29 03:22:04;;;;;;;4.47;0.85;;;;;;;13.69;51.28;101135.63;5070747;28;20032;-84
2022/05/29 03:25:06;;;;;;;2.35;0.80;;;;;;;13.80;50.95;101127.81;5070670;28;20044;-84
2022/05/29 03:27:46;;;;;;;2.42;0.80;;;;;;;13.99;50.51;101124.72;5067469;28;20153;-81
2022/05/29 03:30:23;;;;;;;2.03;0.80;;;;;;;13.87;50.62;101122.94;5066998;28;20028;-81
2022/05/29 03:32:51;;;;;;;2.47;0.57;;;;;;;13.76;50.76;101120.22;5069999;28;20075;-81
2022/05/29 03:35:27;;;;;;;3.97;1.30;;;;;;;13.86;50.41;101115.97;5064079;28;20029;-81
2022/05/29 03:37:53;;;;;;;4.63;0.80;;;;;;;13.83;50.62;101117.03;5071501;28;20020;-81
2022/05/29 03:40:20;;;;;;;4.00;0.80;;;;;;;13.89;50.33;101111.31;5070244;28;20035;-81
2022/05/29 03:42:45;;;;;;;4.28;0.80;;;;;;;13.87;50.60;101107.94;5069441;28;20032;-81
2022/05/29 03:45:11;;;;;;;2.55;0.60;;;;;;;13.92;50.88;101112.06;5071589;28;20029;-81
2022/05/29 03:47:38;;;;;;;1.33;0.40;;;;;;;13.83;50.62;101108.28;5069550;28;20020;-81
2022/05/29 03:50:12;;;;;;;1.95;0.50;;;;;;;13.96;50.51;101106.47;5071766;28;20035;-81
2022/05/29 03:52:38;;;;;;;2.17;0.60;;;;;;;14.00;51.88;101109.72;5069349;28;20551;-81
2022/05/29 03:55:04;;;;;;;1.10;0.43;;;;;;;13.87;51.01;101105.31;5069432;28;20140;-81
2022/05/29 03:57:29;;;;;;;1.77;0.60;;;;;;;13.84;51.00;101104.66;5071325;28;20032;-81
2022/05/29 03:59:55;;;;;;;3.15;0.60;;;;;;;13.73;50.57;101099.31;5068963;28;20475;-81
2022/05/29 04:02:21;;;;;;;2.58;0.45;;;;;;;13.70;51.00;101105.63;5068935;28;20029;-81
2022/05/29 04:04:46;;;;;;;1.20;0.60;;;;;;;13.68;50.89;101104.91;5064661;28;20028;-81
2022/05/29 04:07:11;;;;;;;1.92;0.57;;;;;;;13.92;50.85;101104.13;5069644;28;20028;-81
2022/05/29 04:12:21;;;;;;;2.33;0.50;;;;;;;13.62;51.30;101103.53;5069085;28;20070;-81
2022/05/29 04:14:47;;;;;;;3.30;0.40;;;;;;;13.64;50.82;101100.78;5071332;28;20063;-81
2022/05/29 04:17:16;;;;;;;3.10;0.65;;;;;;;13.49;51.14;101113.28;5069167;28;20111;-81
2022/05/29 04:19:42;;;;;;;2.17;0.98;;;;;;;13.58;50.92;101094.16;5071329;28;20025;-81
2022/05/29 04:22:10;;;;;;;3.55;0.60;;;;;;;13.69;50.35;101088.97;5069146;28;20120;-81
2022/05/29 04:24:36;;;;;;;2.40;0.98;;;;;;;13.70;50.59;101103.00;5071503;28;20089;-81
2022/05/29 04:27:01;;;;;;;4.28;0.75;;;;;;;13.46;50.84;101108.19;5067536;28;20040;-81
2022/05/29 04:29:27;;;;;;;2.05;0.50;;;;;;;13.32;50.98;101095.13;5063205;28;20028;-81
2022/05/29 04:34:36;;;;;;;2.17;0.40;;;;;;;13.41;50.70;101110.31;5069114;28;20059;-81
2022/05/29 04:37:03;;;;;;;1.83;0.65;;;;;;;13.48;50.67;101107.13;5065721;28;20482;-81
2022/05/29 04:39:32;;;;;;;5.20;0.82;;;;;;;13.47;50.62;101100.19;5066578;28;20119;-81
2022/05/29 04:41:59;;;;;;;3.53;0.60;;;;;;;13.57;49.81;101102.19;5068075;28;20041;-81
2022/05/29 04:44:24;;;;;;;3.33;0.77;;;;;;;13.50;49.88;101099.13;5070719;28;20025;-81
2022/05/29 04:46:49;;;;;;;2.60;0.80;;;;;;;13.52;49.73;101089.31;5068830;28;20036;-81
2022/05/29 04:49:15;;;;;;;5.93;0.70;;;;;;;13.55;49.98;101090.91;5071219;28;20021;-81
2022/05/29 04:51:40;;;;;;;6.03;0.77;;;;;;;13.47;49.89;101094.91;5066230;28;20485;-81
2022/05/29 04:54:05;;;;;;;2.63;0.50;;;;;;;13.46;49.84;101097.63;5054709;28;20518;-82
2022/05/29 04:56:31;;;;;;;1.67;0.50;;;;;;;13.48;49.71;101095.75;5058438;28;20035;-84
2022/05/29 04:58:56;;;;;;;3.65;0.85;;;;;;;13.80;49.66;101085.59;5073148;28;20054;-84
2022/05/29 05:01:21;;;;;;;2.22;0.77;;;;;;;13.78;49.10;101094.56;5071900;28;20033;-84
2022/05/29 05:03:47;;;;;;;1.10;0.50;;;;;;;13.54;49.22;101094.47;5074392;28;20020;-84
2022/05/29 05:06:12;;;;;;;3.60;1.13;;;;;;;13.32;49.68;101088.03;5070177;28;20029;-84
2022/05/29 05:08:37;;;;;;;1.92;0.50;;;;;;;13.57;49.11;101089.00;5072157;28;20113;-84
2022/05/29 05:11:05;;;;;;;1.10;0.40;;;;;;;13.66;49.33;101094.47;5068803;28;20025;-83
2022/05/29 05:13:30;;;;;;;5.38;0.77;;;;;;;13.83;48.78;101095.91;5050931;28;20395;-84
2022/05/29 05:16:01;;;;;;;2.85;0.90;;;;;;;13.86;48.90;101097.47;5054903;28;20035;-82
2022/05/29 05:18:26;;;;;;;2.50;0.80;;;;;;;13.96;48.74;101100.31;5069123;28;20390;-81
2022/05/29 05:20:51;;;;;;;1.35;0.60;;;;;;;14.10;48.24;101097.56;5066385;28;20029;-82
2022/05/29 05:23:17;;;;;;;4.03;0.77;;;;;;;14.14;48.28;101096.38;5066405;28;20043;-82
2022/05/29 05:25:42;;;;;;;3.47;0.65;;;;;;;14.08;48.85;101102.09;5067075;28;20036;-82
2022/05/29 05:28:07;;;;;;;3.03;1.00;;;;;;;14.26;48.21;101092.00;5066322;28;20308;-81
2022/05/29 05:30:33;;;;;;;2.92;0.60;;;;;;;14.24;48.72;101100.03;5072599;28;20032;-81
2022/05/29 05:32:58;;;;;;;4.10;1.40;;;;;;;13.84;49.25;101096.75;5071169;28;20051;-81
2022/05/29 05:35:23;;;;;;;3.28;0.98;;;;;;;14.40;48.48;101097.13;5068503;28;20036;-81
2022/05/29 05:37:49;;;;;;;2.15;0.70;;;;;;;14.71;47.51;101097.56;5067310;28;20027;-81
2022/05/29 05:40:15;;;;;;;7.68;1.20;;;;;;;14.41;47.91;101096.16;5069250;28;20036;-81
2022/05/29 05:42:40;;;;;;;4.45;0.65;;;;;;;14.39;48.07;101106.00;5073391;28;20032;-81
2022/05/29 05:45:07;;;;;;;5.88;0.70;;;;;;;14.05;48.41;101104.94;5071552;28;20190;-82
2022/05/29 05:47:32;;;;;;;2.40;0.80;;;;;;;14.36;48.27;101103.59;5071344;28;20021;-81
2022/05/29 05:49:58;;;;;;;2.33;0.70;;;;;;;14.72;47.82;101098.38;5072259;28;20039;-81
2022/05/29 05:52:23;;;;;;;1.50;0.43;;;;;;;14.92;46.91;101100.38;5070173;28;20032;-82
2022/05/29 05:54:48;;;;;;;5.35;0.70;;;;;;;14.86;47.42;101100.84;5073546;28;20025;-81
2022/05/29 05:57:18;;;;;;;1.58;0.70;;;;;;;14.93;47.35;101107.38;5071254;28;20025;-82
2022/05/29 05:59:43;;;;;;;1.50;0.55;;;;;;;14.93;47.93;101086.22;5073499;28;20421;-81
2022/05/29 06:02:09;;;;;;;1.88;0.60;;;;;;;14.60;47.86;101092.22;5070731;28;20062;-82
2022/05/29 06:04:40;;;;;;;5.20;0.70;;;;;;;14.84;48.16;101094.81;5073499;28;20494;-82
2022/05/29 06:07:06;;;;;;;3.42;1.00;;;;;;;14.76;47.75;101099.84;5066063;28;20090;-82
2022/05/29 06:09:32;;;;;;;2.08;0.80;;;;;;;14.75;48.11;101093.72;5055807;28;20025;-82
2022/05/29 06:11:57;;;;;;;1.40;0.70;;;;;;;14.84;48.10;101093.00;5057027;28;20017;-82
2022/05/29 06:14:23;;;;;;;3.53;0.57;;;;;;;14.88;48.39;101097.09;5070952;28;20024;-82
2022/05/29 06:16:48;;;;;;;2.28;0.80;;;;;;;15.36;47.62;101096.13;5070772;28;20048;-81
2022/05/29 06:19:14;;;;;;;3.17;0.70;;;;;;;15.40;47.11;101094.97;5071436;28;20020;-82
2022/05/29 06:21:39;;;;;;;4.47;0.80;;;;;;;15.42;46.91;101095.69;5070831;28;20415;-82
2022/05/29 06:24:05;;;;;;;2.88;0.60;;;;;;;15.46;46.63;101105.06;5070827;28;20028;-82
2022/05/29 06:26:31;;;;;;;3.55;0.70;;;;;;;15.37;47.07;101099.63;5052504;28;20087;-82
2022/05/29 06:28:56;;;;;;;4.68;0.65;;;;;;;15.87;46.36;101102.81;5056890;28;20486;-83
2022/05/29 06:31:22;;;;;;;4.32;1.08;;;;;;;16.28;45.70;101101.31;5068051;28;20426;-82
2022/05/29 06:33:47;;;;;;;3.58;0.90;;;;;;;17.31;42.89;101087.47;5070291;28;20429;-82
2022/05/29 06:36:15;;;;;;;4.05;0.80;;;;;;;17.57;43.41;101095.81;5070620;28;20024;-82
2022/05/29 06:38:43;;;;;;;3.30;0.70;;;;;;;17.61;42.37;101099.06;5069954;28;20033;-81
2022/05/29 06:41:10;;;;;;;4.68;1.27;;;;;;;17.55;42.81;101102.25;5063592;28;20482;-82
2022/05/29 06:43:37;;;;;;;1.80;0.60;;;;;;;17.23;43.56;101100.56;5068513;28;20024;-82
2022/05/29 06:46:05;;;;;;;4.95;0.75;;;;;;;17.73;43.44;101099.81;5063818;28;20191;-82
2022/05/29 06:48:33;;;;;;;3.40;1.10;;;;;;;17.57;43.32;101095.00;5050767;28;20031;-82
2022/05/29 06:51:11;;;;;;;4.38;0.75;;;;;;;17.15;43.80;101089.75;5052957;28;20029;-82
2022/05/29 06:53:37;;;;;;;1.05;0.40;;;;;;;17.06;44.81;101107.28;5051379;28;20052;-81
2022/05/29 06:56:03;;;;;;;3.80;0.77;;;;;;;16.25;46.44;101107.69;5054744;28;20028;-81
2022/05/29 06:58:29;;;;;;;0.98;0.45;;;;;;;16.07;47.66;101109.16;5054430;28;20021;-81
2022/05/29 07:09:06;;;;;;;3.83;0.90;;;;;;;17.67;44.36;101103.00;5064957;28;20051;-81
2022/05/29 07:11:36;;;;;;;2.42;1.08;;;;;;;18.36;42.76;101091.63;5060251;28;20514;-82
2022/05/29 07:14:05;;;;;;;1.63;0.68;;;;;;;17.94;43.12;101097.13;5068043;28;20029;-83
2022/05/29 07:16:34;;;;;;;3.50;0.75;;;;;;;18.04;42.95;101104.13;5067916;28;20352;-83
2022/05/29 07:19:00;;;;;;;2.30;0.60;;;;;;;18.32;42.62;101098.19;5069725;28;20487;-83
2022/05/29 07:21:26;;;;;;;2.72;0.60;;;;;;;18.50;42.04;101099.19;5067792;28;20060;-84
2022/05/29 07:23:52;;;;;;;2.90;0.70;;;;;;;19.22;40.73;101063.28;5068518;28;20428;-83
2022/05/29 07:26:18;;;;;;;2.20;0.60;;;;;;;20.97;37.84;101072.06;5069259;28;20017;-83
2022/05/29 07:28:43;;;;;;;3.08;0.60;;;;;;;20.95;38.03;101084.75;5053991;28;20032;-83
2022/05/29 07:31:09;;;;;;;2.85;0.80;;;;;;;24.08;32.05;101068.03;5052482;28;20075;-83
2022/05/29 07:33:34;;;;;;;3.58;1.52;;;;;;;27.50;27.85;101077.50;5061923;28;20036;-84
2022/05/29 07:36:00;;;;;;;4.25;0.50;;;;;;;28.80;26.75;101078.31;5061679;28;20028;-84
2022/05/29 07:38:26;;;;;;;3.22;1.30;;;;;;;29.01;25.67;101041.25;5067844;28;20371;-84
2022/05/29 07:40:52;;;;;;;4.53;0.85;;;;;;;28.86;26.30;101071.22;5069470;28;20025;-85
2022/05/29 07:43:25;;;;;;;3.05;0.50;;;;;;;28.89;24.97;101068.13;5069637;28;20056;-84
2022/05/29 07:45:54;;;;;;;5.57;1.10;;;;;;;26.27;27.73;101072.38;5069713;28;20417;-84
2022/05/29 07:48:23;;;;;;;3.70;0.75;;;;;;;25.51;28.78;101086.16;5069479;28;20020;-84
2022/05/29 07:50:49;;;;;;;2.13;0.57;;;;;;;25.19;30.04;101078.41;5069334;28;20103;-84
2022/05/29 07:53:15;;;;;;;3.47;0.73;;;;;;;24.68;30.91;101084.41;5056457;28;20036;-84
2022/05/29 07:55:43;;;;;;;3.10;0.65;;;;;;;24.14;30.71;101074.53;5065627;28;20070;-84
2022/05/29 07:58:09;;;;;;;2.42;0.73;;;;;;;23.47;31.09;101069.63;5059454;28;20107;-84
2022/05/29 08:00:35;;;;;;;2.03;0.50;;;;;;;22.61;32.64;101076.41;5064006;28;20548;-84
2022/05/29 08:03:01;;;;;;;2.28;0.38;;;;;;;22.19;33.37;101072.81;5060422;28;20118;-84
2022/05/29 08:05:31;;;;;;;3.97;0.68;;;;;;;21.75;33.36;101073.84;5050041;28;20563;-84
2022/05/29 08:07:57;;;;;;;5.00;0.80;;;;;;;21.81;34.54;101074.22;5065442;28;20028;-84
2022/05/29 08:10:24;;;;;;;2.05;0.73;;;;;;;21.02;35.07;101073.44;5054199;28;20021;-85
2022/05/29 08:12:49;;;;;;;2.75;0.70;;;;;;;19.88;37.00;101072.16;5069013;28;20383;-87
2022/05/29 08:15:15;;;;;;;3.85;0.55;;;;;;;20.67;36.33;101069.81;5056814;28;20028;-84
2022/05/29 08:17:40;;;;;;;2.95;0.47;;;;;;;21.86;34.68;101071.88;5069190;28;20013;-84
2022/05/29 08:20:08;;;;;;;3.40;0.65;;;;;;;22.88;33.29;101059.16;5050832;28;20607;-83
2022/05/29 08:22:33;;;;;;;2.33;0.50;;;;;;;22.32;33.96;101070.53;5058542;28;20021;-84
2022/05/29 08:30:37;;;;;;;3.53;0.77;;;;;;;20.94;36.69;101071.53;5072169;28;20023;-84
2022/05/29 08:33:05;;;;;;;3.53;0.50;;;;;;;19.74;38.20;101068.16;5062911;28;20032;-84
2022/05/29 08:35:32;;;;;;;3.83;0.45;;;;;;;19.81;39.40;101065.75;5054755;28;20029;-83
2022/05/29 08:37:57;;;;;;;5.18;0.80;;;;;;;19.66;38.91;101069.88;5072490;28;20038;-83
2022/05/29 08:40:23;;;;;;;5.85;0.88;;;;;;;19.53;40.58;101070.19;5074572;28;20618;-84
2022/05/29 08:42:49;;;;;;;2.95;0.82;;;;;;;19.30;40.39;101075.06;5074682;28;20035;-86
2022/05/29 08:45:16;;;;;;;2.70;0.50;;;;;;;19.35;40.22;101057.66;5074914;28;20429;-84
2022/05/29 08:47:45;;;;;;;7.43;1.17;;;;;;;19.13;40.28;101056.16;5074541;28;20393;-87
2022/05/29 08:50:21;;;;;;;3.50;0.85;;;;;;;18.67;41.53;101057.75;5057270;28;20033;-84
2022/05/29 08:52:53;;;;;;;3.30;0.93;;;;;;;18.79;41.42;101055.78;5073313;28;20036;-85
2022/05/29 08:55:21;;;;;;;2.03;0.93;;;;;;;18.37;41.18;101050.78;5073525;28;20025;-84
2022/05/29 08:58:08;;;;;;;3.58;0.85;;;;;;;18.54;41.29;101058.06;5072477;28;20031;-84
2022/05/29 09:00:49;;;;;;;1.67;0.50;;;;;;;18.22;41.44;101059.13;5069570;28;20143;-85
2022/05/29 09:03:17;;;;;;;1.67;0.50;;;;;;;17.89;40.83;101056.84;5073230;28;20119;-85
2022/05/29 09:05:45;;;;;;;4.18;1.20;;;;;;;17.98;41.69;101056.84;5057778;28;20016;-84
2022/05/29 09:08:19;;;;;;;3.30;0.68;;;;;;;18.22;41.06;101047.66;5073787;28;20029;-85
2022/05/29 09:10:47;;;;;;;1.95;0.80;;;;;;;18.35;40.54;101052.72;5058572;28;20441;-84
2022/05/29 09:13:23;;;;;;;4.47;0.82;;;;;;;19.14;39.74;101049.03;5071606;28;20028;-84
2022/05/29 09:15:52;;;;;;;3.50;1.10;;;;;;;19.14;39.87;101049.03;5056929;28;20037;-84
2022/05/29 09:18:26;;;;;;;2.25;0.75;;;;;;;19.36;39.67;101051.34;5064543;28;20372;-85
2022/05/29 09:21:04;;;;;;;2.75;0.63;;;;;;;19.51;39.67;101053.50;5069914;28;20027;-86
2022/05/29 09:23:38;;;;;;;2.78;0.60;;;;;;;19.58;39.76;101057.28;5071212;28;20028;-84
2022/05/29 09:26:06;;;;;;;2.97;0.50;;;;;;;19.72;39.46;101048.81;5073611;28;20029;-84
2022/05/29 09:28:39;;;;;;;1.67;0.60;;;;;;;20.49;37.80;101046.63;5072786;28;20020;-84
2022/05/29 09:31:25;;;;;;;6.50;0.77;;;;;;;19.92;37.99;101035.41;5072952;28;20029;-84
2022/05/29 09:33:51;;;;;;;3.10;0.52;;;;;;;20.18;37.57;101027.50;5067763;28;20037;-84
2022/05/29 09:36:30;;;;;;;3.50;1.00;;;;;;;20.85;36.83;101030.59;5071054;28;20176;-84
2022/05/29 09:39:02;;;;;;;4.57;0.98;;;;;;;21.60;35.88;101024.69;5069986;28;20550;-84
2022/05/29 09:41:43;;;;;;;4.13;0.75;;;;;;;23.03;34.67;101022.69;5071426;28;20032;-85
2022/05/29 09:44:16;;;;;;;2.58;0.70;;;;;;;22.58;34.22;101024.88;5070971;28;20120;-85
2022/05/29 09:46:43;;;;;;;5.22;0.77;;;;;;;22.75;34.88;101024.91;5064187;28;20039;-85
2022/05/29 09:49:45;;;;;;;2.28;0.73;;;;;;;22.48;34.19;101023.41;5072102;28;20029;-84
2022/05/29 09:52:21;;;;;;;4.43;0.80;;;;;;;21.83;35.34;101024.09;5071230;28;20028;-85
2022/05/29 09:54:55;;;;;;;3.40;0.90;;;;;;;21.24;36.00;101014.13;5067782;28;20290;-84
2022/05/29 09:57:25;;;;;;;3.65;1.60;;;;;;;21.46;35.56;101012.75;5063016;28;20505;-85
2022/05/29 09:59:56;;;;;;;3.05;0.77;;;;;;;21.53;35.25;101003.13;5069856;28;20391;-85
2022/05/29 10:02:31;;;;;;;3.25;0.60;;;;;;;23.19;33.38;101010.28;5071749;28;20056;-85
2022/05/29 10:04:59;;;;;;;1.92;0.40;;;;;;;23.04;35.09;101007.44;5066510;28;20036;-85
2022/05/29 10:07:32;;;;;;;3.50;0.80;;;;;;;22.64;33.19;101011.84;5063698;28;20419;-85
2022/05/29 10:10:11;;;;;;;1.42;0.50;;;;;;;23.08;33.54;101008.78;5061570;28;20032;-85
2022/05/29 10:12:45;;;;;;;2.03;1.45;;;;;;;24.67;31.78;101010.25;5072339;28;20033;-85
2022/05/29 10:15:26;;;;;;;4.78;0.43;;;;;;;25.09;31.63;101015.00;5071823;28;20077;-85
2022/05/29 10:17:51;;;;;;;2.78;0.60;;;;;;;23.63;31.78;101013.25;5069378;28;20116;-85
2022/05/29 10:20:30;;;;;;;3.63;0.70;;;;;;;23.44;31.56;101019.03;5059275;28;20032;-85
2022/05/29 10:22:57;;;;;;;0.80;0.40;;;;;;;23.18;32.85;101020.13;5070152;28;20090;-85
2022/05/29 10:25:30;;;;;;;3.20;0.73;;;;;;;22.69;33.81;101012.16;5071100;28;20021;-85
2022/05/29 10:28:00;;;;;;;3.10;0.45;;;;;;;22.51;34.38;101013.19;5072676;28;20073;-85
2022/05/29 10:30:28;;;;;;;3.95;0.57;;;;;;;22.55;35.02;101008.31;5071461;28;20359;-85
2022/05/29 10:33:17;;;;;;;3.55;0.70;;;;;;;22.53;35.66;101000.47;5072583;28;20374;-85
2022/05/29 10:35:43;;;;;;;3.80;0.57;;;;;;;23.26;34.49;100998.69;5072863;28;20028;-85
2022/05/29 10:38:25;;;;;;;1.85;0.55;;;;;;;23.03;34.61;101001.28;5072574;28;20031;-85
2022/05/29 10:40:54;;;;;;;4.75;0.50;;;;;;;23.09;34.91;100999.75;5072856;28;20032;-85
2022/05/29 10:43:42;;;;;;;4.18;0.70;;;;;;;22.79;35.61;100994.09;5072778;28;20032;-85
2022/05/29 10:46:18;;;;;;;1.83;0.75;;;;;;;22.13;34.69;101002.09;5072563;28;20055;-85
2022/05/29 10:49:18;;;;;;;2.10;0.60;;;;;;;21.88;36.43;100995.03;5072556;28;20053;-85
2022/05/29 10:51:59;;;;;;;1.35;0.40;;;;;;;21.76;36.61;100990.00;5072397;28;20787;-85
2022/05/29 10:54:39;;;;;;;3.13;0.60;;;;;;;21.85;36.06;100990.84;5072291;28;20027;-85
2022/05/29 10:57:22;;;;;;;1.65;0.57;;;;;;;21.90;36.40;100987.66;5072450;28;20031;-85
2022/05/29 11:00:17;;;;;;;1.15;0.50;;;;;;;21.69;35.44;100996.16;5072221;28;20047;-85
2022/05/29 11:03:28;;;;;;;2.53;0.60;;;;;;;21.61;36.18;100988.97;5067102;28;20432;-85
2022/05/29 11:06:09;;;;;;;2.63;0.40;;;;;;;21.53;37.27;100987.09;5063870;28;20131;-85
2022/05/29 11:09:10;;;;;;;0.60;0.25;;;;;;;21.77;37.58;100989.00;5072177;28;20017;-85
2022/05/29 11:11:42;;;;;;;2.23;0.83;;;;;;;21.98;34.93;100977.84;5072159;28;20552;-85
2022/05/29 11:14:42;;;;;;;1.30;0.43;;;;;;;22.51;34.67;100974.88;5072095;28;20317;-85
2022/05/29 11:17:16;;;;;;;7.82;0.38;;;;;;;23.49;33.06;100973.81;5067644;28;20037;-85
2022/05/29 11:20:09;;;;;;;1.42;0.45;;;;;;;24.07;33.20;100967.13;5071992;28;20024;-85
2022/05/29 11:22:52;;;;;;;1.17;0.45;;;;;;;24.09;31.76;100965.09;5071782;28;20383;-85
2022/05/29 11:25:33;;;;;;;5.15;1.00;;;;;;;22.92;35.36;100970.28;5072074;28;20479;-85
2022/05/29 11:28:55;;;;;;;2.63;0.50;;;;;;;22.36;36.67;100972.88;5071895;28;20508;-85
2022/05/29 11:31:39;;;;;;;2.95;0.50;;;;;;;22.38;36.69;100970.88;5049415;28;20590;-85
2022/05/29 11:34:40;;;;;;;2.05;0.40;;;;;;;22.53;36.88;100962.16;5049400;28;20064;-85
2022/05/29 11:37:30;;;;;;;1.77;0.60;;;;;;;21.68;37.09;100963.25;5068544;28;20047;-85
2022/05/29 11:40:10;;;;;;;1.60;0.50;;;;;;;21.28;38.18;100962.06;5071934;28;20081;-85
2022/05/29 11:42:36;;;;;;;0.90;0.40;;;;;;;20.44;39.93;100963.56;5071648;28;20386;-85
2022/05/29 11:45:11;;;;;;;6.35;0.50;;;;;;;20.10;40.81;100966.97;5071582;28;20032;-85
2022/05/29 11:53:58;;;;;;;1.10;0.55;;;;;;;20.13;41.97;100958.66;5071585;28;20055;-84
2022/05/29 11:56:50;;;;;;;2.55;0.50;;;;;;;20.20;39.46;100951.72;5071872;28;20028;-85
2022/05/29 11:59:15;;;;;;;3.15;1.42;;;;;;;19.94;41.02;100953.47;5071583;28;20573;-85
2022/05/29 12:01:44;;;;;;;7.40;1.05;;;;;;;20.13;40.34;100950.66;5073397;28;20138;-85
2022/05/29 12:04:33;;;;;;;2.08;0.47;;;;;;;19.89;40.85;100951.25;5076004;28;20020;-85
2022/05/29 12:07:17;;;;;;;1.85;0.60;;;;;;;20.07;41.00;100948.59;5075777;28;20395;-84
2022/05/29 12:09:59;;;;;;;1.33;0.60;;;;;;;19.97;40.76;100951.34;5075518;28;20025;-85
2022/05/29 12:12:49;;;;;;;1.75;0.85;;;;;;;19.99;40.56;100938.69;5075517;28;20070;-85